KAXS/AXS METAR and TAF weather

Enter ICAO airport designator
Station Type Date Time Source
KAXS METAR 2019/04/22 23:55 UTC NOAA

KAXS 222355Z AUTO 06011G14KT 10SM BKN029 BKN036 OVC055 22/16 A3003 RMK AO2 T02200160 10241 20220


Station Type Date Time Source
KAXS Decoded METAR 2019/04/22 23:55 UTC NOAA

Altus, Altus/Quartz Mountain Regional Airport, OK, United States (KAXS) 34-41-55N 099-20-17W
Apr 22, 2019 - 07:55 PM EDT / 2019.04.22 2355 UTC
Wind: from the ENE (060 degrees) at 13 MPH (11 KT) gusting to 16 MPH (14 KT):0
Visibility: 10 mile(s):0
Sky conditions: overcast
Temperature: 71.6 F (22.0 C)
Dew Point: 60.8 F (16.0 C)
Relative Humidity: 68%
Pressure (altimeter): 30.03 in. Hg (1016 hPa)
ob: KAXS 222355Z AUTO 06011G14KT 10SM BKN029 BKN036 OVC055 22/16 A3003 RMK AO2 T02200160 10241 20220
cycle: 0

Station Type Date Time Source
KAXS TAF UTC NOAA

Error!

Example: see airport list